Time;durP1;ratioP1;P1;durP2;ratioP2;P2;SDS_P1;SDS_P2;PMS_P1;PMS_P2;Temp;Humidity;BMP_temperature;BMP_pressure;BME280_temperature;BME280_humidity;BME280_pressure;Samples;Min_cycle;Max_cycle;Signal;HPM_P1;HPM_P2
2024/03/22 00:01:41;;;;;;;;;;;;;;;;;;5016769;28;19913;-59
2024/03/22 00:04:07;;;;;;;;;;;;;;;;;;5014456;28;19914;-59
2024/03/22 00:06:33;;;;;;;;;;;;;;;;;;5012294;28;19913;-58
2024/03/22 00:08:59;;;;;;;;;;;;;;;;;;5013854;28;19924;-58
2024/03/22 00:11:25;;;;;;;;;;;;;;;;;;5011298;28;20004;-58
2024/03/22 00:13:51;;;;;;;;;;;;;;;;;;5011677;28;20271;-59
2024/03/22 00:16:16;;;;;;;;;;;;;;;;;;5012130;28;19975;-57
2024/03/22 00:18:42;;;;;;;;;;;;;;;;;;5011912;28;19913;-58
2024/03/22 00:21:08;;;;;;;;;;;;;;;;;;5011418;28;19914;-59
2024/03/22 00:23:34;;;;;;;;;;;;;;;;;;5011808;28;19914;-57
2024/03/22 00:26:00;;;;;;;;;;;;;;;;;;5015587;28;19920;-59
2024/03/22 00:28:26;;;;;;;;;;;;;;;;;;5011685;28;19925;-57
2024/03/22 00:30:52;;;;;;;;;;;;;;;;;;5013144;28;20043;-58
2024/03/22 00:33:18;;;;;;;;;;;;;;;;;;5008126;28;19921;-57
2024/03/22 00:35:43;;;;;;;;;;;;;;;;;;5010865;28;20421;-58
2024/03/22 00:38:09;;;;;;;;;;;;;;;;;;5009712;28;19914;-59
2024/03/22 00:40:35;;;;;;;;;;;;;;;;;;5011386;28;19914;-58
2024/03/22 00:43:01;;;;;;;;;;;;;;;;;;5010268;28;20287;-58
2024/03/22 00:45:27;;;;;;;;;;;;;;;;;;5013801;28;19918;-58
2024/03/22 00:47:53;;;;;;;;;;;;;;;;;;5014039;28;19922;-58
2024/03/22 00:50:19;;;;;;;;;;;;;;;;;;5014960;28;21379;-58
2024/03/22 00:52:44;;;;;;;;;;;;;;;;;;5014667;28;20011;-59
2024/03/22 00:55:10;;;;;;;;;;;;;;;;;;5015189;28;19921;-59
2024/03/22 00:57:36;;;;;;;;;;;;;;;;;;5010283;28;20024;-58
2024/03/22 01:00:02;;;;;;;;;;;;;;;;;;5014799;28;19917;-56
2024/03/22 01:02:28;;;;;;;;;;;;;;;;;;5018052;28;19948;-58
2024/03/22 01:04:54;;;;;;;;;;;;;;;;;;5015054;28;20395;-59
2024/03/22 01:07:19;;;;;;;;;;;;;;;;;;5017477;28;19925;-58
2024/03/22 01:09:45;;;;;;;;;;;;;;;;;;5014029;28;19988;-59
2024/03/22 01:12:11;;;;;;;;;;;;;;;;;;5014898;28;19921;-58
2024/03/22 01:14:37;;;;;;;;;;;;;;;;;;5014976;28;19920;-57
2024/03/22 01:17:03;;;;;;;;;;;;;;;;;;5014376;28;20392;-54
2024/03/22 01:19:29;;;;;;;;;;;;;;;;;;5013762;28;19959;-57
2024/03/22 01:21:55;;;;;;;;;;;;;;;;;;5013511;28;19913;-58
2024/03/22 01:24:20;;;;;;;;;;;;;;;;;;5012407;28;19914;-57
2024/03/22 01:26:46;;;;;;;;;;;;;;;;;;5013287;28;20008;-58
2024/03/22 01:29:12;;;;;;;;;;;;;;;;;;5013252;28;19923;-59
2024/03/22 01:31:38;;;;;;;;;;;;;;;;;;5013449;28;19921;-59
2024/03/22 01:34:05;;;;;;;;;;;;;;;;;;5014394;28;20376;-58
2024/03/22 01:36:31;;;;;;;;;;;;;;;;;;5013167;28;20024;-58
2024/03/22 01:38:57;;;;;;;;;;;;;;;;;;5013084;28;19925;-57
2024/03/22 01:41:23;;;;;;;;;;;;;;;;;;5017621;28;19923;-59
2024/03/22 01:43:49;;;;;;;;;;;;;;;;;;5014235;28;19913;-59
2024/03/22 01:46:15;;;;;;;;;;;;;;;;;;5011929;28;19914;-59
2024/03/22 01:48:40;;;;;;;;;;;;;;;;;;5013447;28;19918;-56
2024/03/22 01:51:06;;;;;;;;;;;;;;;;;;5019655;28;19924;-59
2024/03/22 01:53:32;;;;;;;;;;;;;;;;;;5022526;28;20411;-60
2024/03/22 01:55:58;;;;;;;;;;;;;;;;;;5018451;28;20023;-59
2024/03/22 01:58:24;;;;;;;;;;;;;;;;;;5011693;28;19914;-59
2024/03/22 02:00:50;;;;;;;;;;;;;;;;;;5014265;28;19957;-58
2024/03/22 02:03:16;;;;;;;;;;;;;;;;;;5013421;28;20291;-59
2024/03/22 02:05:41;;;;;;;;;;;;;;;;;;5012922;28;19914;-58
2024/03/22 02:08:07;;;;;;;;;;;;;;;;;;5016912;28;19913;-57
2024/03/22 02:10:33;;;;;;;;;;;;;;;;;;5012975;28;19917;-59
2024/03/22 02:12:59;;;;;;;;;;;;;;;;;;5013139;28;19936;-58
2024/03/22 02:15:25;;;;;;;;;;;;;;;;;;5011556;28;19913;-59
2024/03/22 02:17:51;;;;;;;;;;;;;;;;;;5012255;28;19913;-56
2024/03/22 02:20:17;;;;;;;;;;;;;;;;;;5011535;28;20016;-59
2024/03/22 02:22:43;;;;;;;;;;;;;;;;;;5012627;28;20000;-56
2024/03/22 02:25:08;;;;;;;;;;;;;;;;;;5014860;28;20065;-59
2024/03/22 02:27:34;;;;;;;;;;;;;;;;;;5011675;28;19920;-59
2024/03/22 02:30:01;;;;;;;;;;;;;;;;;;5012277;28;20008;-59
2024/03/22 02:32:27;;;;;;;;;;;;;;;;;;5016856;28;20379;-59
2024/03/22 02:34:53;;;;;;;;;;;;;;;;;;5012314;28;19922;-59
2024/03/22 02:37:19;;;;;;;;;;;;;;;;;;5011906;28;19913;-59
2024/03/22 02:39:45;;;;;;;;;;;;;;;;;;5012149;28;19924;-58
2024/03/22 02:42:11;;;;;;;;;;;;;;;;;;5017372;28;19913;-59
2024/03/22 02:44:42;;;;;;;;;;;;;;;;;;5011785;28;19925;-59
2024/03/22 02:47:08;;;;;;;;;;;;;;;;;;5009239;28;20372;-59
2024/03/22 02:49:34;;;;;;;;;;;;;;;;;;5010888;28;19921;-58
2024/03/22 02:52:00;;;;;;;;;;;;;;;;;;5012016;28;20474;-58
2024/03/22 02:54:25;;;;;;;;;;;;;;;;;;5010297;28;19932;-57
2024/03/22 02:56:51;;;;;;;;;;;;;;;;;;5011272;28;19921;-57
2024/03/22 02:59:17;;;;;;;;;;;;;;;;;;5011368;28;20293;-59
2024/03/22 03:01:43;;;;;;;;;;;;;;;;;;5011661;28;19976;-55
2024/03/22 03:04:09;;;;;;;;;;;;;;;;;;5011811;28;19952;-57
2024/03/22 03:06:35;;;;;;;;;;;;;;;;;;5009367;28;20362;-58
2024/03/22 03:09:01;;;;;;;;;;;;;;;;;;5011700;28;20071;-57
2024/03/22 03:11:26;;;;;;;;;;;;;;;;;;5013454;28;19926;-58
2024/03/22 03:13:52;;;;;;;;;;;;;;;;;;5011544;28;20411;-58
2024/03/22 03:16:18;;;;;;;;;;;;;;;;;;5014051;28;19917;-59
2024/03/22 03:18:44;;;;;;;;;;;;;;;;;;5011705;28;20000;-60
2024/03/22 03:21:10;;;;;;;;;;;;;;;;;;5013520;28;19913;-59
2024/03/22 03:23:36;;;;;;;;;;;;;;;;;;5010098;28;20467;-56
2024/03/22 03:26:02;;;;;;;;;;;;;;;;;;5010188;28;19920;-58
2024/03/22 03:28:27;;;;;;;;;;;;;;;;;;5011072;28;19924;-58
2024/03/22 03:30:53;;;;;;;;;;;;;;;;;;5011310;28;20000;-58
2024/03/22 03:33:19;;;;;;;;;;;;;;;;;;5015010;28;19924;-57
2024/03/22 03:35:45;;;;;;;;;;;;;;;;;;5010140;28;19923;-56
2024/03/22 03:38:11;;;;;;;;;;;;;;;;;;5011169;28;19917;-56
2024/03/22 03:40:37;;;;;;;;;;;;;;;;;;5009131;28;20017;-55
2024/03/22 03:43:03;;;;;;;;;;;;;;;;;;5013566;28;19914;-56
2024/03/22 03:45:28;;;;;;;;;;;;;;;;;;5010947;28;20375;-57
2024/03/22 03:47:54;;;;;;;;;;;;;;;;;;5010971;28;19914;-57
2024/03/22 03:50:20;;;;;;;;;;;;;;;;;;5011447;28;19921;-59
2024/03/22 03:52:46;;;;;;;;;;;;;;;;;;5021398;28;19913;-57
2024/03/22 03:55:12;;;;;;;;;;;;;;;;;;5015152;28;19952;-59
2024/03/22 03:57:38;;;;;;;;;;;;;;;;;;5013611;28;20000;-57
2024/03/22 04:00:04;;;;;;;;;;;;;;;;;;5014291;28;20000;-58
2024/03/22 04:02:30;;;;;;;;;;;;;;;;;;5011259;28;20394;-56
2024/03/22 04:04:56;;;;;;;;;;;;;;;;;;5016582;28;19913;-58
2024/03/22 04:07:22;;;;;;;;;;;;;;;;;;5012980;28;19913;-59
2024/03/22 04:09:48;;;;;;;;;;;;;;;;;;5012774;28;20307;-59
2024/03/22 04:12:14;;;;;;;;;;;;;;;;;;5011097;28;19992;-60
2024/03/22 04:14:40;;;;;;;;;;;;;;;;;;5019612;28;19922;-59
2024/03/22 04:17:05;;;;;;;;;;;;;;;;;;5022928;28;19913;-57
2024/03/22 04:19:31;;;;;;;;;;;;;;;;;;5011097;28;19922;-59
2024/03/22 04:21:57;;;;;;;;;;;;;;;;;;5013903;28;20328;-59
2024/03/22 04:24:23;;;;;;;;;;;;;;;;;;5021344;28;19917;-61
2024/03/22 04:26:49;;;;;;;;;;;;;;;;;;5016374;28;20365;-57
2024/03/22 04:29:15;;;;;;;;;;;;;;;;;;5014689;28;19917;-59
2024/03/22 04:31:41;;;;;;;;;;;;;;;;;;5014979;28;20268;-58
2024/03/22 04:34:07;;;;;;;;;;;;;;;;;;5014496;28;19947;-59
2024/03/22 04:36:33;;;;;;;;;;;;;;;;;;5014125;28;19924;-59
2024/03/22 04:38:59;;;;;;;;;;;;;;;;;;5018418;28;20382;-58
2024/03/22 04:41:25;;;;;;;;;;;;;;;;;;5017364;28;19913;-59
2024/03/22 04:43:50;;;;;;;;;;;;;;;;;;5014444;28;20012;-58
2024/03/22 04:46:16;;;;;;;;;;;;;;;;;;5014595;28;20391;-56
2024/03/22 04:48:42;;;;;;;;;;;;;;;;;;5013089;28;19924;-56
2024/03/22 04:51:08;;;;;;;;;;;;;;;;;;5017166;28;19924;-56
2024/03/22 04:53:34;;;;;;;;;;;;;;;;;;5014030;28;19921;-57
2024/03/22 04:56:00;;;;;;;;;;;;;;;;;;5015963;28;19913;-59
2024/03/22 04:58:26;;;;;;;;;;;;;;;;;;5018385;28;19913;-59
2024/03/22 05:00:52;;;;;;;;;;;;;;;;;;5013484;28;20419;-59
2024/03/22 05:03:18;;;;;;;;;;;;;;;;;;5018803;28;19969;-59
2024/03/22 05:05:44;;;;;;;;;;;;;;;;;;5013741;28;19971;-58
2024/03/22 05:08:10;;;;;;;;;;;;;;;;;;5013983;28;19913;-59
2024/03/22 05:10:36;;;;;;;;;;;;;;;;;;5013252;28;20430;-56
2024/03/22 05:13:02;;;;;;;;;;;;;;;;;;5016492;28;20043;-59
2024/03/22 05:15:28;;;;;;;;;;;;;;;;;;5016315;28;20368;-57
2024/03/22 05:17:54;;;;;;;;;;;;;;;;;;5013292;28;19967;-59
2024/03/22 05:20:20;;;;;;;;;;;;;;;;;;5012557;28;20295;-56
2024/03/22 05:22:46;;;;;;;;;;;;;;;;;;5010758;28;19917;-56
2024/03/22 05:25:12;;;;;;;;;;;;;;;;;;5017359;28;20387;-59
2024/03/22 05:27:38;;;;;;;;;;;;;;;;;;5013064;28;19913;-56
2024/03/22 05:30:04;;;;;;;;;;;;;;;;;;5013178;28;19940;-55
2024/03/22 05:32:30;;;;;;;;;;;;;;;;;;5014499;28;19914;-59
2024/03/22 05:34:56;;;;;;;;;;;;;;;;;;5014996;28;20371;-57
2024/03/22 05:37:22;;;;;;;;;;;;;;;;;;5016546;28;19919;-59
2024/03/22 05:39:48;;;;;;;;;;;;;;;;;;5013095;28;19913;-58
2024/03/22 05:42:15;;;;;;;;;;;;;;;;;;5012733;28;21518;-59
2024/03/22 05:44:41;;;;;;;;;;;;;;;;;;5013848;28;20268;-59
2024/03/22 05:47:07;;;;;;;;;;;;;;;;;;5015380;28;20012;-60
2024/03/22 05:49:33;;;;;;;;;;;;;;;;;;5013417;28;19917;-60
2024/03/22 05:51:59;;;;;;;;;;;;;;;;;;5013262;28;19910;-62
2024/03/22 05:54:25;;;;;;;;;;;;;;;;;;5018550;28;19913;-62
2024/03/22 05:56:51;;;;;;;;;;;;;;;;;;5013263;28;19921;-61
2024/03/22 05:59:16;;;;;;;;;;;;;;;;;;5018810;28;20032;-61
2024/03/22 06:01:42;;;;;;;;;;;;;;;;;;5014167;28;19917;-60
2024/03/22 06:04:08;;;;;;;;;;;;;;;;;;5016603;28;20008;-61
2024/03/22 06:06:34;;;;;;;;;;;;;;;;;;5014122;28;20376;-61
2024/03/22 06:09:03;;;;;;;;;;;;;;;;;;5018020;28;20023;-60
2024/03/22 06:11:29;;;;;;;;;;;;;;;;;;5012378;28;19920;-61
2024/03/22 06:13:54;;;;;;;;;;;;;;;;;;5012624;28;20307;-61
2024/03/22 06:16:21;;;;;;;;;;;;;;;;;;5015387;28;19914;-62
2024/03/22 06:18:46;;;;;;;;;;;;;;;;;;5011744;28;19917;-60
2024/03/22 06:21:14;;;;;;;;;;;;;;;;;;5016460;28;19916;-61
2024/03/22 06:23:41;;;;;;;;;;;;;;;;;;5010015;28;20395;-62
2024/03/22 06:26:07;;;;;;;;;;;;;;;;;;5014341;28;20280;-60
2024/03/22 06:28:33;;;;;;;;;;;;;;;;;;5013699;28;19963;-62
2024/03/22 06:30:58;;;;;;;;;;;;;;;;;;5011283;28;20272;-61
2024/03/22 06:33:24;;;;;;;;;;;;;;;;;;5018669;28;19988;-62
2024/03/22 06:35:50;;;;;;;;;;;;;;;;;;5028016;28;19918;-61
2024/03/22 06:38:16;;;;;;;;;;;;;;;;;;5024368;28;19945;-61
2024/03/22 06:40:42;;;;;;;;;;;;;;;;;;5012143;28;21386;-62
2024/03/22 06:43:09;;;;;;;;;;;;;;;;;;5010871;28;19914;-62
2024/03/22 06:45:34;;;;;;;;;;;;;;;;;;5010915;28;20269;-60
2024/03/22 06:48:00;;;;;;;;;;;;;;;;;;5014880;28;19913;-61
2024/03/22 06:50:26;;;;;;;;;;;;;;;;;;5014086;28;19949;-62
2024/03/22 06:52:53;;;;;;;;;;;;;;;;;;5010660;28;19959;-60
2024/03/22 06:55:19;;;;;;;;;;;;;;;;;;5015257;28;19914;-61
2024/03/22 06:57:45;;;;;;;;;;;;;;;;;;5012947;28;20449;-61
2024/03/22 07:00:10;;;;;;;;;;;;;;;;;;5015412;28;19913;-61
2024/03/22 07:02:36;;;;;;;;;;;;;;;;;;5017216;28;19913;-62
2024/03/22 07:05:03;;;;;;;;;;;;;;;;;;5015001;28;19997;-62
2024/03/22 07:07:29;;;;;;;;;;;;;;;;;;5011398;28;19913;-62
2024/03/22 07:09:55;;;;;;;;;;;;;;;;;;5014933;28;19929;-61
2024/03/22 07:12:21;;;;;;;;;;;;;;;;;;5016040;28;19920;-62
2024/03/22 07:14:47;;;;;;;;;;;;;;;;;;5012701;28;19940;-61
2024/03/22 07:17:13;;;;;;;;;;;;;;;;;;5010588;28;19917;-62
2024/03/22 07:19:38;;;;;;;;;;;;;;;;;;5013651;28;19918;-62
2024/03/22 07:22:04;;;;;;;;;;;;;;;;;;5012218;28;19914;-61
2024/03/22 07:24:30;;;;;;;;;;;;;;;;;;5012635;28;20290;-60
2024/03/22 07:26:56;;;;;;;;;;;;;;;;;;5015086;28;19913;-62
2024/03/22 07:29:22;;;;;;;;;;;;;;;;;;5010073;28;19956;-62
2024/03/22 07:31:48;;;;;;;;;;;;;;;;;;5013789;28;20276;-62
2024/03/22 07:34:14;;;;;;;;;;;;;;;;;;5011889;28;20001;-61
2024/03/22 07:36:40;;;;;;;;;;;;;;;;;;5015418;28;19944;-62
2024/03/22 07:39:06;;;;;;;;;;;;;;;;;;5011216;28;20300;-62
2024/03/22 07:41:32;;;;;;;;;;;;;;;;;;5016625;28;19920;-61
2024/03/22 07:43:59;;;;;;;;;;;;;;;;;;5015335;28;20514;-60
2024/03/22 07:46:25;;;;;;;;;;;;;;;;;;5018751;28;20000;-61
2024/03/22 07:48:51;;;;;;;;;;;;;;;;;;5015605;28;20047;-60
2024/03/22 07:51:17;;;;;;;;;;;;;;;;;;5014587;28;19918;-61
2024/03/22 07:53:43;;;;;;;;;;;;;;;;;;5012831;28;19971;-62
2024/03/22 07:56:09;;;;;;;;;;;;;;;;;;5018596;28;20027;-61
2024/03/22 07:58:35;;;;;;;;;;;;;;;;;;5011034;28;19913;-62
2024/03/22 08:01:01;;;;;;;;;;;;;;;;;;5011400;28;19921;-61
2024/03/22 08:03:27;;;;;;;;;;;;;;;;;;5012891;28;19984;-62
2024/03/22 08:05:52;;;;;;;;;;;;;;;;;;5015975;28;19925;-62
2024/03/22 08:08:18;;;;;;;;;;;;;;;;;;5015926;28;20398;-62
2024/03/22 08:10:44;;;;;;;;;;;;;;;;;;5016591;28;19941;-62
2024/03/22 08:13:11;;;;;;;;;;;;;;;;;;5010581;28;19917;-61
2024/03/22 08:15:36;;;;;;;;;;;;;;;;;;5014300;28;19914;-61
2024/03/22 08:18:02;;;;;;;;;;;;;;;;;;5009839;28;19917;-62
2024/03/22 08:20:29;;;;;;;;;;;;;;;;;;5009478;28;19920;-61
2024/03/22 08:22:55;;;;;;;;;;;;;;;;;;5009327;28;19913;-59
2024/03/22 08:25:22;;;;;;;;;;;;;;;;;;5011381;28;19920;-61
2024/03/22 08:27:48;;;;;;;;;;;;;;;;;;5009797;28;19918;-62
2024/03/22 08:30:13;;;;;;;;;;;;;;;;;;5014068;28;19923;-62
2024/03/22 08:32:39;;;;;;;;;;;;;;;;;;5009725;28;19921;-62
2024/03/22 08:35:05;;;;;;;;;;;;;;;;;;5008819;28;20433;-60
2024/03/22 08:37:31;;;;;;;;;;;;;;;;;;5009824;28;19914;-61
2024/03/22 08:39:57;;;;;;;;;;;;;;;;;;5009486;28;20004;-61
2024/03/22 08:42:23;;;;;;;;;;;;;;;;;;5013975;28;19936;-62
2024/03/22 08:44:49;;;;;;;;;;;;;;;;;;5012998;28;19917;-61
2024/03/22 08:47:14;;;;;;;;;;;;;;;;;;5009257;28;20371;-61
2024/03/22 08:49:43;;;;;;;;;;;;;;;;;;5010110;28;19913;-60
2024/03/22 08:52:09;;;;;;;;;;;;;;;;;;5011014;28;19914;-59
2024/03/22 08:54:35;;;;;;;;;;;;;;;;;;5010990;28;19913;-60
2024/03/22 08:57:01;;;;;;;;;;;;;;;;;;5015175;28;19960;-60
2024/03/22 08:59:27;;;;;;;;;;;;;;;;;;5014933;28;19968;-60
2024/03/22 09:01:53;;;;;;;;;;;;;;;;;;5017938;28;21132;-61
2024/03/22 09:04:19;;;;;;;;;;;;;;;;;;5011232;28;19914;-61
2024/03/22 09:06:45;;;;;;;;;;;;;;;;;;5016527;28;19909;-61
2024/03/22 09:09:11;;;;;;;;;;;;;;;;;;5014874;28;19970;-61
2024/03/22 09:11:37;;;;;;;;;;;;;;;;;;5014548;28;20363;-61
2024/03/22 09:14:02;;;;;;;;;;;;;;;;;;5016442;28;19916;-62
2024/03/22 09:16:28;;;;;;;;;;;;;;;;;;5020277;28;20287;-61
2024/03/22 09:18:54;;;;;;;;;;;;;;;;;;5014752;28;19985;-61
2024/03/22 09:21:20;;;;;;;;;;;;;;;;;;5018613;28;19917;-61
2024/03/22 09:23:46;;;;;;;;;;;;;;;;;;5014242;28;19916;-61
2024/03/22 09:26:12;;;;;;;;;;;;;;;;;;5022718;28;20476;-61
2024/03/22 09:28:38;;;;;;;;;;;;;;;;;;5014922;28;20004;-61
2024/03/22 09:31:03;;;;;;;;;;;;;;;;;;5011896;28;20380;-60
2024/03/22 09:33:29;;;;;;;;;;;;;;;;;;5012942;28;19921;-61
2024/03/22 09:35:55;;;;;;;;;;;;;;;;;;5012524;28;20407;-62
2024/03/22 09:38:21;;;;;;;;;;;;;;;;;;5012910;28;19936;-61
2024/03/22 09:40:47;;;;;;;;;;;;;;;;;;5012387;28;19921;-60
2024/03/22 09:43:15;;;;;;;;;;;;;;;;;;5011959;28;19981;-61
2024/03/22 09:45:41;;;;;;;;;;;;;;;;;;5013760;28;19920;-61
2024/03/22 09:48:07;;;;;;;;;;;;;;;;;;5012126;28;19918;-61
2024/03/22 09:50:32;;;;;;;;;;;;;;;;;;5012613;28;20059;-61
2024/03/22 09:52:58;;;;;;;;;;;;;;;;;;5014773;28;19914;-60
2024/03/22 09:55:24;;;;;;;;;;;;;;;;;;5011402;28;19984;-62
2024/03/22 09:57:50;;;;;;;;;;;;;;;;;;5012585;28;19917;-61
2024/03/22 10:00:16;;;;;;;;;;;;;;;;;;5012550;28;19917;-61
2024/03/22 10:02:42;;;;;;;;;;;;;;;;;;5012529;28;19920;-61
2024/03/22 10:05:08;;;;;;;;;;;;;;;;;;5011727;28;20395;-61
2024/03/22 10:07:34;;;;;;;;;;;;;;;;;;5012610;28;19918;-60
2024/03/22 10:10:00;;;;;;;;;;;;;;;;;;5011249;28;19921;-62
2024/03/22 10:12:26;;;;;;;;;;;;;;;;;;5012808;28;19913;-61
2024/03/22 10:14:51;;;;;;;;;;;;;;;;;;5011226;28;20390;-60
2024/03/22 10:17:18;;;;;;;;;;;;;;;;;;5011391;28;20347;-61
2024/03/22 10:19:44;;;;;;;;;;;;;;;;;;5011052;28;19914;-61
2024/03/22 10:22:10;;;;;;;;;;;;;;;;;;5016366;28;20346;-61
2024/03/22 10:24:36;;;;;;;;;;;;;;;;;;5012070;28;19980;-61
2024/03/22 10:27:01;;;;;;;;;;;;;;;;;;5011813;28;19975;-61
2024/03/22 10:29:27;;;;;;;;;;;;;;;;;;5010170;28;19925;-61
2024/03/22 10:31:53;;;;;;;;;;;;;;;;;;5013216;28;19921;-61
2024/03/22 10:34:19;;;;;;;;;;;;;;;;;;5010954;28;19917;-61
2024/03/22 10:36:45;;;;;;;;;;;;;;;;;;5011662;28;19924;-61
2024/03/22 10:39:11;;;;;;;;;;;;;;;;;;5010603;28;20391;-62
2024/03/22 10:41:37;;;;;;;;;;;;;;;;;;5011136;28;19925;-60
2024/03/22 10:44:04;;;;;;;;;;;;;;;;;;5011440;28;19936;-61
2024/03/22 10:46:30;;;;;;;;;;;;;;;;;;5012959;28;19924;-59
2024/03/22 10:48:56;;;;;;;;;;;;;;;;;;5011160;28;20487;-59
2024/03/22 10:51:21;;;;;;;;;;;;;;;;;;5010403;28;19913;-59
2024/03/22 10:53:47;;;;;;;;;;;;;;;;;;5026717;28;19917;-59
2024/03/22 10:56:14;;;;;;;;;;;;;;;;;;5011284;28;20264;-60
2024/03/22 10:58:40;;;;;;;;;;;;;;;;;;5011385;28;20265;-60
2024/03/22 11:01:06;;;;;;;;;;;;;;;;;;5012331;28;19921;-61
2024/03/22 11:03:33;;;;;;;;;;;;;;;;;;5012913;28;20005;-60
2024/03/22 11:05:59;;;;;;;;;;;;;;;;;;5014483;28;20017;-60
2024/03/22 11:08:25;;;;;;;;;;;;;;;;;;5016292;28;19964;-59
2024/03/22 11:10:51;;;;;;;;;;;;;;;;;;5013680;28;19921;-59
2024/03/22 11:13:17;;;;;;;;;;;;;;;;;;5016189;28;19939;-59
2024/03/22 11:15:43;;;;;;;;;;;;;;;;;;5011307;28;19960;-60
2024/03/22 11:18:09;;;;;;;;;;;;;;;;;;5011015;28;19917;-59
2024/03/22 11:20:35;;;;;;;;;;;;;;;;;;5010858;28;19913;-59
2024/03/22 11:23:01;;;;;;;;;;;;;;;;;;5010875;28;19939;-60
2024/03/22 11:25:26;;;;;;;;;;;;;;;;;;5009735;28;20406;-59
2024/03/22 11:27:54;;;;;;;;;;;;;;;;;;5014547;28;19999;-60
2024/03/22 11:30:20;;;;;;;;;;;;;;;;;;5020437;28;20333;-60
2024/03/22 11:32:45;;;;;;;;;;;;;;;;;;5018900;28;19964;-60
2024/03/22 11:35:11;;;;;;;;;;;;;;;;;;5011034;28;20588;-61
2024/03/22 11:37:37;;;;;;;;;;;;;;;;;;5009347;28;19968;-60
2024/03/22 11:40:05;;;;;;;;;;;;;;;;;;5010740;28;20012;-59
2024/03/22 11:42:31;;;;;;;;;;;;;;;;;;5010799;28;19914;-59
2024/03/22 11:44:57;;;;;;;;;;;;;;;;;;5009666;28;19984;-60
2024/03/22 11:47:23;;;;;;;;;;;;;;;;;;5009814;28;19926;-60
2024/03/22 11:49:49;;;;;;;;;;;;;;;;;;5009767;28;19922;-58
2024/03/22 11:52:15;;;;;;;;;;;;;;;;;;5010399;28;20397;-58
2024/03/22 11:54:40;;;;;;;;;;;;;;;;;;5010387;28;19996;-60
2024/03/22 11:57:06;;;;;;;;;;;;;;;;;;5010279;28;20295;-59
2024/03/22 11:59:32;;;;;;;;;;;;;;;;;;5008178;28;19920;-59
2024/03/22 12:01:58;;;;;;;;;;;;;;;;;;5010988;28;19921;-59
2024/03/22 12:04:24;;;;;;;;;;;;;;;;;;5012467;28;19918;-60
2024/03/22 12:06:50;;;;;;;;;;;;;;;;;;5012859;28;19963;-60
2024/03/22 12:09:16;;;;;;;;;;;;;;;;;;5012137;28;19924;-60
2024/03/22 12:11:41;;;;;;;;;;;;;;;;;;5010048;28;20621;-59
2024/03/22 12:14:07;;;;;;;;;;;;;;;;;;5012822;28;19917;-60
2024/03/22 12:16:33;;;;;;;;;;;;;;;;;;5012724;28;19917;-59
2024/03/22 12:18:59;;;;;;;;;;;;;;;;;;5012020;28;19920;-59
2024/03/22 12:21:25;;;;;;;;;;;;;;;;;;5011627;28;19975;-60
2024/03/22 12:23:51;;;;;;;;;;;;;;;;;;5012449;28;19921;-60
2024/03/22 12:26:17;;;;;;;;;;;;;;;;;;5011484;28;19913;-60
2024/03/22 12:28:42;;;;;;;;;;;;;;;;;;5008562;28;20379;-59
2024/03/22 12:31:08;;;;;;;;;;;;;;;;;;5008569;28;19967;-60
2024/03/22 12:33:34;;;;;;;;;;;;;;;;;;5008213;28;20005;-60
2024/03/22 12:36:00;;;;;;;;;;;;;;;;;;5010796;28;19971;-58
2024/03/22 12:38:27;;;;;;;;;;;;;;;;;;5009282;28;19932;-60
2024/03/22 12:40:52;;;;;;;;;;;;;;;;;;5009516;28;19914;-61
2024/03/22 12:43:18;;;;;;;;;;;;;;;;;;5013624;28;19921;-60
2024/03/22 12:45:44;;;;;;;;;;;;;;;;;;5012017;28;19953;-59
2024/03/22 12:48:10;;;;;;;;;;;;;;;;;;5014644;28;19918;-59
2024/03/22 12:50:36;;;;;;;;;;;;;;;;;;5013502;28;19917;-60
2024/03/22 12:53:02;;;;;;;;;;;;;;;;;;5013651;28;19920;-58
2024/03/22 12:55:30;;;;;;;;;;;;;;;;;;5013582;28;19917;-59
2024/03/22 12:57:56;;;;;;;;;;;;;;;;;;5013174;28;20245;-60
2024/03/22 13:00:22;;;;;;;;;;;;;;;;;;5013001;28;19932;-60
2024/03/22 13:02:48;;;;;;;;;;;;;;;;;;5015032;28;19925;-60
2024/03/22 13:05:15;;;;;;;;;;;;;;;;;;5013576;28;19949;-61
2024/03/22 13:07:41;;;;;;;;;;;;;;;;;;5012411;28;20395;-59
2024/03/22 13:10:07;;;;;;;;;;;;;;;;;;5011672;28;19925;-59
2024/03/22 13:12:34;;;;;;;;;;;;;;;;;;5009033;28;19921;-60
2024/03/22 13:15:00;;;;;;;;;;;;;;;;;;5011740;28;19946;-60
2024/03/22 13:17:26;;;;;;;;;;;;;;;;;;5014108;28;19929;-60
2024/03/22 13:19:51;;;;;;;;;;;;;;;;;;5009073;28;19921;-59
2024/03/22 13:22:18;;;;;;;;;;;;;;;;;;5014173;28;19928;-60
2024/03/22 13:24:44;;;;;;;;;;;;;;;;;;5009680;28;19924;-60
2024/03/22 13:27:10;;;;;;;;;;;;;;;;;;5018492;28;19940;-60
2024/03/22 13:29:36;;;;;;;;;;;;;;;;;;5013808;28;20513;-59
2024/03/22 13:32:02;;;;;;;;;;;;;;;;;;5016668;28;20367;-60
2024/03/22 13:34:28;;;;;;;;;;;;;;;;;;5013922;28;20428;-60
2024/03/22 13:36:54;;;;;;;;;;;;;;;;;;5015358;28;20024;-61
2024/03/22 13:39:20;;;;;;;;;;;;;;;;;;5010719;28;19917;-60
2024/03/22 13:41:47;;;;;;;;;;;;;;;;;;5015004;28;20296;-60
2024/03/22 13:44:13;;;;;;;;;;;;;;;;;;5010753;28;19917;-59
2024/03/22 13:46:41;;;;;;;;;;;;;;;;;;5015642;28;20063;-61
2024/03/22 13:49:07;;;;;;;;;;;;;;;;;;5016198;28;19917;-62
2024/03/22 13:51:34;;;;;;;;;;;;;;;;;;5021173;28;19914;-60
2024/03/22 13:54:00;;;;;;;;;;;;;;;;;;5015945;28;19924;-60
2024/03/22 13:56:25;;;;;;;;;;;;;;;;;;5016504;28;19917;-60
2024/03/22 13:58:51;;;;;;;;;;;;;;;;;;5016383;28;20295;-61
2024/03/22 14:01:17;;;;;;;;;;;;;;;;;;5015170;28;19917;-60
2024/03/22 14:03:43;;;;;;;;;;;;;;;;;;5014031;28;19917;-60
2024/03/22 14:06:09;;;;;;;;;;;;;;;;;;5010009;28;19917;-60
2024/03/22 14:08:35;;;;;;;;;;;;;;;;;;5014810;28;19920;-60
2024/03/22 14:11:00;;;;;;;;;;;;;;;;;;5010906;28;19917;-60
2024/03/22 14:13:27;;;;;;;;;;;;;;;;;;5015538;28;19921;-60
2024/03/22 14:15:53;;;;;;;;;;;;;;;;;;5011407;28;19924;-60
2024/03/22 14:18:19;;;;;;;;;;;;;;;;;;5019039;28;19921;-60
2024/03/22 14:20:45;;;;;;;;;;;;;;;;;;5012246;28;20036;-59
2024/03/22 14:23:11;;;;;;;;;;;;;;;;;;5010540;28;20625;-61
2024/03/22 14:25:37;;;;;;;;;;;;;;;;;;5014123;28;19919;-59
2024/03/22 14:28:02;;;;;;;;;;;;;;;;;;5015143;28;19913;-61
2024/03/22 14:30:28;;;;;;;;;;;;;;;;;;5014878;28;19917;-60
2024/03/22 14:32:54;;;;;;;;;;;;;;;;;;5013831;28;19928;-60
2024/03/22 14:35:22;;;;;;;;;;;;;;;;;;5008295;28;19940;-60
2024/03/22 14:37:48;;;;;;;;;;;;;;;;;;5010796;28;19922;-59
2024/03/22 14:40:14;;;;;;;;;;;;;;;;;;5011579;28;19918;-61
2024/03/22 14:42:40;;;;;;;;;;;;;;;;;;5014694;28;19959;-59
2024/03/22 14:45:08;;;;;;;;;;;;;;;;;;5012973;28;19948;-60
2024/03/22 14:47:34;;;;;;;;;;;;;;;;;;5014084;28;20292;-60
2024/03/22 14:49:59;;;;;;;;;;;;;;;;;;5005276;28;19926;-58
2024/03/22 14:52:25;;;;;;;;;;;;;;;;;;5015147;28;19921;-60
2024/03/22 14:54:51;;;;;;;;;;;;;;;;;;5011691;28;19931;-60
2024/03/22 14:57:17;;;;;;;;;;;;;;;;;;5013221;28;19918;-61
2024/03/22 14:59:43;;;;;;;;;;;;;;;;;;5009423;28;20390;-60
2024/03/22 15:02:09;;;;;;;;;;;;;;;;;;5010954;28;19936;-58
2024/03/22 15:04:35;;;;;;;;;;;;;;;;;;5014397;28;19913;-60
2024/03/22 15:07:01;;;;;;;;;;;;;;;;;;5010800;28;19913;-62
2024/03/22 15:09:27;;;;;;;;;;;;;;;;;;5014439;28;20387;-59
2024/03/22 15:11:54;;;;;;;;;;;;;;;;;;5012116;28;19919;-61
2024/03/22 15:14:22;;;;;;;;;;;;;;;;;;5015353;28;19917;-60
2024/03/22 15:16:48;;;;;;;;;;;;;;;;;;5011456;28;19913;-61
2024/03/22 15:19:14;;;;;;;;;;;;;;;;;;5009593;28;19990;-60
2024/03/22 15:21:40;;;;;;;;;;;;;;;;;;5011763;28;19918;-60
2024/03/22 15:24:06;;;;;;;;;;;;;;;;;;5011136;28;19921;-60
2024/03/22 15:26:32;;;;;;;;;;;;;;;;;;5010556;28;20403;-60
2024/03/22 15:28:57;;;;;;;;;;;;;;;;;;5010854;28;19991;-61
2024/03/22 15:31:23;;;;;;;;;;;;;;;;;;5013291;28;20387;-60
2024/03/22 15:33:49;;;;;;;;;;;;;;;;;;5015984;28;19918;-60
2024/03/22 15:36:15;;;;;;;;;;;;;;;;;;5011780;28;20426;-60
2024/03/22 15:38:41;;;;;;;;;;;;;;;;;;5012699;28;20058;-59
2024/03/22 15:41:07;;;;;;;;;;;;;;;;;;5012449;28;19921;-60
2024/03/22 15:43:34;;;;;;;;;;;;;;;;;;5010463;28;19913;-60
2024/03/22 15:46:00;;;;;;;;;;;;;;;;;;5009714;28;19937;-60
2024/03/22 15:48:26;;;;;;;;;;;;;;;;;;5017232;28;19935;-59
2024/03/22 15:50:53;;;;;;;;;;;;;;;;;;5008061;28;19972;-60
2024/03/22 15:53:19;;;;;;;;;;;;;;;;;;5010805;28;19914;-60
2024/03/22 15:55:45;;;;;;;;;;;;;;;;;;5007856;28;20399;-60
2024/03/22 15:58:10;;;;;;;;;;;;;;;;;;5010075;28;19913;-60
2024/03/22 16:00:36;;;;;;;;;;;;;;;;;;5009740;28;20459;-61
2024/03/22 16:03:02;;;;;;;;;;;;;;;;;;5026458;28;19921;-60
2024/03/22 16:05:28;;;;;;;;;;;;;;;;;;5008585;28;20000;-62
2024/03/22 16:07:54;;;;;;;;;;;;;;;;;;5010137;28;19921;-60
2024/03/22 16:10:20;;;;;;;;;;;;;;;;;;5007067;28;20307;-60
2024/03/22 16:12:46;;;;;;;;;;;;;;;;;;5012561;28;19918;-61
2024/03/22 16:15:12;;;;;;;;;;;;;;;;;;5015286;28;19913;-60
2024/03/22 16:17:37;;;;;;;;;;;;;;;;;;5016390;28;20300;-59
2024/03/22 16:20:03;;;;;;;;;;;;;;;;;;5009689;28;19918;-60
2024/03/22 16:22:29;;;;;;;;;;;;;;;;;;5017458;28;19913;-59
2024/03/22 16:24:55;;;;;;;;;;;;;;;;;;5010753;28;19913;-60
2024/03/22 16:27:21;;;;;;;;;;;;;;;;;;5013661;28;19920;-58
2024/03/22 16:29:47;;;;;;;;;;;;;;;;;;5009360;28;19918;-61
2024/03/22 16:32:13;;;;;;;;;;;;;;;;;;5011788;28;19918;-60
2024/03/22 16:34:39;;;;;;;;;;;;;;;;;;5008819;28;19917;-61
2024/03/22 16:37:07;;;;;;;;;;;;;;;;;;5016577;28;19914;-60